Ana Sayfa
METAR-TAF:

METAR-TAF

Havaalanları :

Burlington-Alamance Regional Airport

Burlington, Kuzey Carolina, Amerika Birleşik Devletleri

Enlem: 36-02-52N, Boylam: 079-28-26W, yükseklik: 188 m

Güncel hava durumu gözlemi

Rapor saat 03:54 UTC de 23 dakika önce yapıldı.
Rüzgar güney/güneybatıdan 3 kt
Sıcaklık 26°C
Nem 79%
Basınç 1016 hPa
Görüş mesafesi: 16.1 km
Açık gökyüzü

METAR: KBUY 210354Z AUTO 20003KT 10SM CLR 26/22 A3000 RMK AO2 SLP150 T02560222

Saat: 00:17 (04:17 UTC)


TAF: eksik

4.000'den fazla havaalanı için hava durumu gözlemleri ve tahminleri (METAR ve TAF raporları).

Kullanılabilir istasyonlar harita üzerinde sarı ve kırmızı noktalarla gösterilir.

İstasyonun adını görmek için fareyi noktanın üzerinde gezdirin.

Sonrasında hava gözlem ve tahminlerini görmek için tıklayın.

Haritayı değiştirmek için: yaklaştırmak için siyah artı işaretli yeşil düğmeye ve uzaklaştırmak için de eksi işaretli düğmeye hızla tıklayın; bitişik haritalar için yeşil okları kullanın.


METAR-TAF: